Time;durP1;ratioP1;P1;durP2;ratioP2;P2;SDS_P1;SDS_P2;PMS_P1;PMS_P2;Temp;Humidity;BMP_temperature;BMP_pressure;BME280_temperature;BME280_humidity;BME280_pressure;Samples;Min_cycle;Max_cycle;Signal;HPM_P1;HPM_P2
2022/02/17 00:00:12;;;;;;;1.93;1.50;;;9.50;99.90;;;;;;5033162;28;20231;-56
2022/02/17 00:02:42;;;;;;;1.50;1.40;;;9.60;99.90;;;;;;5016132;28;20175;-54
2022/02/17 00:05:09;;;;;;;2.40;1.50;;;9.70;99.90;;;;;;5033312;28;20168;-57
2022/02/17 00:07:35;;;;;;;1.67;1.57;;;9.60;99.90;;;;;;5032968;28;20529;-56
2022/02/17 00:10:00;;;;;;;1.73;1.60;;;9.70;99.90;;;;;;5015023;28;20192;-55
2022/02/17 00:12:26;;;;;;;3.10;1.43;;;9.50;99.90;;;;;;5033189;28;20186;-55
2022/02/17 00:14:51;;;;;;;1.93;1.83;;;9.50;99.90;;;;;;5032562;28;20253;-57
2022/02/17 00:17:17;;;;;;;1.60;1.50;;;9.50;99.90;;;;;;5032759;28;20171;-55
2022/02/17 00:19:43;;;;;;;1.80;1.40;;;9.60;99.90;;;;;;5032210;28;20204;-53
2022/02/17 00:22:08;;;;;;;1.27;1.17;;;9.60;99.90;;;;;;5033104;28;20171;-57
2022/02/17 00:24:34;;;;;;;1.73;1.37;;;9.50;99.90;;;;;;5032020;28;20187;-57
2022/02/17 00:27:02;;;;;;;1.00;1.00;;;9.50;99.90;;;;;;5033010;28;20172;-54
2022/02/17 00:29:28;;;;;;;1.33;1.20;;;9.50;99.90;;;;;;5032283;28;20230;-55
2022/02/17 00:31:53;;;;;;;1.80;1.17;;;9.40;99.90;;;;;;5032898;28;20203;-57
2022/02/17 00:34:19;;;;;;;1.07;1.07;;;9.40;99.90;;;;;;5033082;28;20546;-55
2022/02/17 00:36:44;;;;;;;1.57;1.20;;;9.40;99.90;;;;;;5032528;28;20179;-54
2022/02/17 00:39:10;;;;;;;1.63;1.10;;;9.30;99.90;;;;;;5032144;28;20220;-56
2022/02/17 00:41:36;;;;;;;1.13;0.90;;;9.30;99.90;;;;;;5032867;28;20197;-56
2022/02/17 00:44:02;;;;;;;1.10;1.00;;;9.20;99.90;;;;;;5032313;28;20262;-54
2022/02/17 00:46:27;;;;;;;1.20;0.87;;;9.30;99.90;;;;;;5032427;28;20307;-57
2022/02/17 00:48:54;;;;;;;1.13;1.00;;;9.40;99.90;;;;;;5032410;28;20191;-55
2022/02/17 00:51:19;;;;;;;1.00;0.90;;;9.40;99.90;;;;;;5032294;28;20697;-54
2022/02/17 00:53:45;;;;;;;0.90;0.60;;;9.30;99.90;;;;;;5032581;28;20255;-53
2022/02/17 00:56:11;;;;;;;0.67;0.67;;;9.30;99.90;;;;;;5032490;28;20557;-58
2022/02/17 00:58:36;;;;;;;0.83;0.70;;;9.30;99.90;;;;;;5029636;28;20245;-54
2022/02/17 01:01:03;;;;;;;1.80;0.67;;;9.30;99.90;;;;;;5031678;28;20656;-53
2022/02/17 01:03:28;;;;;;;0.80;0.50;;;9.30;99.90;;;;;;5031671;28;20187;-55
2022/02/17 01:05:54;;;;;;;0.40;0.40;;;9.30;99.90;;;;;;5032028;28;20183;-54
2022/02/17 01:08:19;;;;;;;2.10;0.60;;;9.30;99.90;;;;;;5031267;28;20261;-54
2022/02/17 01:10:45;;;;;;;0.90;0.50;;;9.30;99.90;;;;;;5032109;28;20184;-55
2022/02/17 01:13:10;;;;;;;0.60;0.60;;;9.30;99.90;;;;;;5014088;28;20214;-57
2022/02/17 01:15:36;;;;;;;0.67;0.40;;;9.40;99.90;;;;;;5031667;28;20242;-56
2022/02/17 01:18:02;;;;;;;0.87;0.40;;;9.40;99.90;;;;;;5031761;28;20199;-54
2022/02/17 01:20:27;;;;;;;0.73;0.57;;;9.40;99.90;;;;;;5031993;28;20212;-55
2022/02/17 01:22:53;;;;;;;0.73;0.30;;;9.50;99.90;;;;;;5032069;28;20515;-57
2022/02/17 01:25:19;;;;;;;1.50;0.30;;;9.60;99.90;;;;;;5030750;28;20215;-55
2022/02/17 01:27:44;;;;;;;0.40;0.30;;;9.60;99.90;;;;;;5031863;28;20172;-56
2022/02/17 01:30:11;;;;;;;0.47;0.30;;;9.60;99.90;;;;;;5031290;28;20168;-56
2022/02/17 01:32:36;;;;;;;0.40;0.40;;;9.60;99.90;;;;;;5031850;28;20229;-56
2022/02/17 01:35:03;;;;;;;0.50;0.30;;;9.70;99.90;;;;;;5031376;28;20188;-55
2022/02/17 01:37:29;;;;;;;0.50;0.50;;;9.70;99.90;;;;;;5031883;28;20183;-56
2022/02/17 01:39:54;;;;;;;0.37;0.27;;;9.80;99.90;;;;;;5031549;28;20196;-57
2022/02/17 01:42:20;;;;;;;0.60;0.40;;;9.80;99.90;;;;;;5031432;28;20629;-55
2022/02/17 01:44:46;;;;;;;0.30;0.30;;;9.90;99.90;;;;;;5031680;28;20187;-57
2022/02/17 01:47:14;;;;;;;0.40;0.30;;;9.90;99.90;;;;;;5031646;28;20179;-56
2022/02/17 01:49:41;;;;;;;0.93;0.40;;;9.90;99.90;;;;;;5030676;28;20195;-57
2022/02/17 01:52:07;;;;;;;0.50;0.27;;;9.90;99.90;;;;;;5031593;28;20179;-56
2022/02/17 01:54:33;;;;;;;0.20;0.20;;;9.90;99.90;;;;;;5031574;28;20251;-57
2022/02/17 01:57:03;;;;;;;0.83;0.37;;;10.00;99.90;;;;;;5031396;28;20264;-57
2022/02/17 01:59:29;;;;;;;0.37;0.37;;;10.00;99.90;;;;;;5031726;28;20588;-58
2022/02/17 02:01:54;;;;;;;0.30;0.30;;;10.00;99.90;;;;;;5031547;28;20182;-53
2022/02/17 02:04:20;;;;;;;0.37;0.37;;;10.10;99.90;;;;;;5031657;28;20222;-54
2022/02/17 02:06:46;;;;;;;0.57;0.30;;;10.10;99.90;;;;;;5031280;28;20588;-57
2022/02/17 02:09:16;;;;;;;0.30;0.30;;;10.20;99.90;;;;;;5031259;28;20700;-57
2022/02/17 02:11:42;;;;;;;0.20;0.20;;;10.30;99.90;;;;;;5031581;28;20213;-54
2022/02/17 02:14:17;;;;;;;0.30;0.30;;;10.30;99.90;;;;;;5031418;28;20549;-53
2022/02/17 02:16:44;;;;;;;0.43;0.30;;;10.30;99.90;;;;;;5031377;28;20179;-57
2022/02/17 02:19:10;;;;;;;0.40;0.30;;;10.40;99.90;;;;;;5031063;28;20218;-57
2022/02/17 02:21:36;;;;;;;0.20;0.20;;;10.50;99.90;;;;;;5029725;28;20648;-55
2022/02/17 02:24:02;;;;;;;0.20;0.20;;;10.50;99.90;;;;;;5030114;28;20195;-55
2022/02/17 02:26:27;;;;;;;0.20;0.20;;;10.50;99.90;;;;;;5030675;28;20230;-56
2022/02/17 02:28:54;;;;;;;0.60;0.30;;;10.60;99.90;;;;;;5030879;28;20187;-56
2022/02/17 02:31:20;;;;;;;0.63;0.43;;;10.60;99.90;;;;;;5030718;28;20184;-56
2022/02/17 02:33:46;;;;;;;0.60;0.40;;;10.70;99.90;;;;;;5031314;28;20229;-55
2022/02/17 02:36:12;;;;;;;0.20;0.20;;;10.70;99.90;;;;;;5031136;28;20266;-57
2022/02/17 02:38:37;;;;;;;0.30;0.30;;;10.80;99.90;;;;;;5030945;28;20250;-57
2022/02/17 02:41:03;;;;;;;1.60;0.20;;;10.80;99.90;;;;;;5030670;28;20742;-54
2022/02/17 02:43:29;;;;;;;0.30;0.20;;;10.90;99.90;;;;;;5031190;28;20306;-57
2022/02/17 02:45:54;;;;;;;0.20;0.20;;;10.90;99.90;;;;;;5030966;28;20259;-54
2022/02/17 02:48:20;;;;;;;0.50;0.20;;;11.00;99.90;;;;;;5031024;28;20196;-56
2022/02/17 02:50:45;;;;;;;0.10;0.10;;;11.10;99.90;;;;;;5031017;28;20237;-57
2022/02/17 02:53:15;;;;;;;0.20;0.20;;;11.20;99.90;;;;;;5031027;28;20176;-55
2022/02/17 02:55:43;;;;;;;0.57;0.20;;;11.20;99.90;;;;;;5030853;28;20172;-55
2022/02/17 02:58:09;;;;;;;0.50;0.20;;;11.30;99.90;;;;;;5030391;28;20199;-57
2022/02/17 03:00:35;;;;;;;0.13;0.13;;;11.40;99.90;;;;;;5032113;28;20211;-55
2022/02/17 03:03:00;;;;;;;0.40;0.23;;;11.40;99.90;;;;;;5034456;28;20207;-55
2022/02/17 03:05:26;;;;;;;0.30;0.27;;;11.40;99.90;;;;;;5034435;28;20172;-55
2022/02/17 03:07:52;;;;;;;0.13;0.10;;;11.40;99.90;;;;;;5034042;28;20541;-59
2022/02/17 03:10:18;;;;;;;0.20;0.20;;;11.40;99.90;;;;;;5034582;28;20178;-57
2022/02/17 03:12:44;;;;;;;0.20;0.20;;;11.40;99.90;;;;;;5034261;28;20250;-58
2022/02/17 03:15:10;;;;;;;0.67;0.20;;;11.50;99.90;;;;;;5034332;28;20851;-57
2022/02/17 03:17:35;;;;;;;0.47;0.20;;;11.50;99.90;;;;;;5034256;28;20211;-56
2022/02/17 03:20:01;;;;;;;0.30;0.30;;;11.50;99.90;;;;;;5033885;28;20322;-57
2022/02/17 03:22:27;;;;;;;0.97;0.60;;;11.50;99.90;;;;;;5034250;28;20638;-56
2022/02/17 03:24:52;;;;;;;0.20;0.20;;;11.50;99.90;;;;;;5032668;28;20204;-59
2022/02/17 03:27:18;;;;;;;0.10;0.10;;;11.60;99.90;;;;;;5034140;28;20703;-57
2022/02/17 03:29:44;;;;;;;0.30;0.20;;;11.60;99.90;;;;;;5033647;28;20202;-53
2022/02/17 03:32:09;;;;;;;2.43;0.17;;;11.60;99.90;;;;;;5034143;28;20230;-56
2022/02/17 03:34:35;;;;;;;0.20;0.20;;;11.60;99.90;;;;;;5033799;28;20241;-55
2022/02/17 03:37:00;;;;;;;0.20;0.20;;;11.70;99.90;;;;;;5032936;28;20661;-54
2022/02/17 03:39:26;;;;;;;0.10;0.10;;;11.60;99.90;;;;;;5033770;28;20199;-54
2022/02/17 03:41:51;;;;;;;0.30;0.30;;;11.70;99.90;;;;;;5033529;28;20641;-52
2022/02/17 03:44:17;;;;;;;0.20;0.20;;;11.70;99.90;;;;;;5033957;28;20180;-53
2022/02/17 03:46:42;;;;;;;0.20;0.20;;;11.60;99.90;;;;;;5033402;28;20178;-54
2022/02/17 03:49:08;;;;;;;0.20;0.20;;;11.60;99.90;;;;;;5033464;28;20291;-55
2022/02/17 03:51:34;;;;;;;0.20;0.20;;;11.70;99.90;;;;;;5033334;28;20179;-53
2022/02/17 03:53:59;;;;;;;0.57;0.30;;;11.70;99.90;;;;;;5033754;28;20176;-55
2022/02/17 03:56:25;;;;;;;0.70;0.30;;;11.70;99.90;;;;;;5033238;28;20560;-56
2022/02/17 03:59:03;;;;;;;0.20;0.20;;;11.80;99.90;;;;;;5033329;28;20722;-55
2022/02/17 04:01:31;;;;;;;0.30;0.20;;;11.80;99.90;;;;;;5033486;28;20178;-57
2022/02/17 04:03:58;;;;;;;0.37;0.27;;;11.80;99.90;;;;;;5033223;28;20171;-59
2022/02/17 04:06:23;;;;;;;0.10;0.10;;;11.80;99.90;;;;;;5033345;28;20163;-59
2022/02/17 04:08:49;;;;;;;0.23;0.20;;;11.80;99.90;;;;;;5032750;28;20704;-57
2022/02/17 04:11:14;;;;;;;1.33;0.40;;;11.80;99.90;;;;;;5034738;28;20541;-58
2022/02/17 04:13:40;;;;;;;0.20;0.20;;;11.90;99.90;;;;;;5032242;28;20653;-56
2022/02/17 04:16:05;;;;;;;0.20;0.20;;;12.50;99.90;;;;;;5033178;28;20172;-58
2022/02/17 04:18:31;;;;;;;0.20;0.20;;;11.90;99.90;;;;;;5032701;28;20198;-57
2022/02/17 04:20:56;;;;;;;0.27;0.27;;;12.00;99.90;;;;;;5032989;28;20211;-57
2022/02/17 04:23:22;;;;;;;5.40;0.30;;;12.00;99.90;;;;;;5015504;28;20168;-53
2022/02/17 04:25:48;;;;;;;0.20;0.20;;;12.00;99.90;;;;;;5032584;28;20172;-55
2022/02/17 04:28:13;;;;;;;0.20;0.20;;;11.90;99.90;;;;;;5032872;28;20316;-56
2022/02/17 04:30:39;;;;;;;0.20;0.20;;;11.90;99.90;;;;;;5032725;28;20172;-57
2022/02/17 04:33:04;;;;;;;0.20;0.20;;;12.00;99.90;;;;;;5032811;28;20218;-56
2022/02/17 04:35:30;;;;;;;0.10;0.10;;;12.00;99.90;;;;;;5032548;28;20183;-56
2022/02/17 04:37:56;;;;;;;0.20;0.20;;;12.00;99.90;;;;;;5032538;28;20188;-56
2022/02/17 04:42:18;;;;;;;0.20;0.20;;;12.00;99.90;;;;;;5032035;28;20192;-56
2022/02/17 04:43:09;;;;;;;0.10;0.10;;;12.20;99.90;;;;;;5032723;28;20180;-56
2022/02/17 04:45:35;;;;;;;2.47;0.53;;;12.00;99.90;;;;;;5032468;28;20168;-55
2022/02/17 04:48:05;;;;;;;0.20;0.20;;;12.20;99.90;;;;;;5032168;28;20218;-57
2022/02/17 04:50:31;;;;;;;0.10;0.10;;;12.20;99.90;;;;;;5032663;28;20183;-57
2022/02/17 04:52:56;;;;;;;0.20;0.20;;;12.20;99.90;;;;;;5032410;28;20595;-54
2022/02/17 04:55:22;;;;;;;0.20;0.20;;;12.10;99.90;;;;;;5032450;28;20183;-55
2022/02/17 04:57:47;;;;;;;0.20;0.20;;;12.20;99.90;;;;;;5032251;28;20164;-57
2022/02/17 05:00:13;;;;;;;0.10;0.10;;;12.20;99.90;;;;;;5032141;28;20187;-56
2022/02/17 05:02:39;;;;;;;2.30;0.27;;;12.20;99.90;;;;;;5032221;28;20172;-59
2022/02/17 05:05:05;;;;;;;0.10;0.10;;;12.20;99.90;;;;;;5032353;28;20214;-58
2022/02/17 05:07:31;;;;;;;0.30;0.23;;;12.10;99.90;;;;;;5032217;28;20168;-56
2022/02/17 05:09:57;;;;;;;0.20;0.20;;;12.20;99.90;;;;;;5031873;28;20214;-57
2022/02/17 05:12:22;;;;;;;0.20;0.20;;;12.30;99.90;;;;;;5032490;28;20180;-58
2022/02/17 05:14:48;;;;;;;0.10;0.10;;;12.30;99.90;;;;;;5031815;28;20186;-58
2022/02/17 05:17:13;;;;;;;0.20;0.20;;;12.20;99.90;;;;;;5032210;28;20229;-55
2022/02/17 05:19:39;;;;;;;0.23;0.20;;;12.20;99.90;;;;;;5031599;28;20631;-56
2022/02/17 05:22:04;;;;;;;0.20;0.20;;;12.20;99.90;;;;;;5032314;28;20561;-54
2022/02/17 05:24:30;;;;;;;0.10;0.10;;;12.20;99.90;;;;;;5031509;28;20218;-54
2022/02/17 05:26:56;;;;;;;1.27;0.20;;;12.20;99.90;;;;;;5032137;28;20172;-56
2022/02/17 05:29:22;;;;;;;0.33;0.10;;;12.20;99.90;;;;;;5031666;28;20195;-55
2022/02/17 05:31:48;;;;;;;0.30;0.30;;;12.20;99.90;;;;;;5031768;28;20222;-56
2022/02/17 05:34:13;;;;;;;0.20;0.20;;;12.20;99.90;;;;;;5032000;28;20184;-56
2022/02/17 05:36:40;;;;;;;3.10;0.30;;;12.10;99.90;;;;;;5031646;28;20176;-57
2022/02/17 05:39:06;;;;;;;1.17;0.30;;;12.20;99.90;;;;;;5031554;28;20192;-57
2022/02/17 05:41:32;;;;;;;0.20;0.20;;;12.20;99.90;;;;;;5031663;28;20247;-57
2022/02/17 05:43:58;;;;;;;0.10;0.10;;;14.50;99.90;;;;;;5031867;28;20180;-60
2022/02/17 05:46:23;;;;;;;0.37;0.10;;;12.30;99.90;;;;;;5031604;28;20231;-56
2022/02/17 05:48:49;;;;;;;0.20;0.20;;;12.30;99.90;;;;;;5031547;28;20201;-56
2022/02/17 05:51:18;;;;;;;0.50;0.17;;;12.30;99.90;;;;;;5031612;28;20168;-60
2022/02/17 05:53:44;;;;;;;0.30;0.10;;;12.30;99.90;;;;;;5031840;28;20179;-54
2022/02/17 05:56:09;;;;;;;0.20;0.20;;;12.30;99.90;;;;;;5031625;28;20247;-56
2022/02/17 05:58:35;;;;;;;0.87;0.47;;;12.40;99.90;;;;;;5031206;28;20672;-56
2022/02/17 06:01:01;;;;;;;0.10;0.10;;;12.40;99.90;;;;;;5031610;28;20203;-59
2022/02/17 06:03:27;;;;;;;0.30;0.10;;;12.40;99.90;;;;;;5031505;28;20164;-56
2022/02/17 06:05:53;;;;;;;1.37;0.20;;;12.40;99.90;;;;;;5031451;28;20194;-55
2022/02/17 06:08:19;;;;;;;0.20;0.20;;;12.40;99.90;;;;;;5031022;28;20219;-58
2022/02/17 06:10:44;;;;;;;0.20;0.20;;;12.40;99.90;;;;;;5031704;28;20167;-57
2022/02/17 06:13:10;;;;;;;0.47;0.10;;;12.40;99.90;;;;;;5031183;28;20555;-56
2022/02/17 06:15:36;;;;;;;0.73;0.20;;;12.40;99.90;;;;;;5031520;28;20176;-57
2022/02/17 06:18:03;;;;;;;0.10;0.10;;;12.40;99.90;;;;;;5031399;28;20189;-59
2022/02/17 06:20:29;;;;;;;1.07;0.30;;;12.30;99.90;;;;;;5031245;28;20582;-57
2022/02/17 06:22:54;;;;;;;0.20;0.20;;;12.30;99.90;;;;;;5031580;28;20256;-56
2022/02/17 06:25:20;;;;;;;0.13;0.13;;;12.40;99.90;;;;;;5031492;28;20168;-54
2022/02/17 06:27:47;;;;;;;0.10;0.10;;;14.30;99.90;;;;;;5031540;28;20203;-57
2022/02/17 06:30:13;;;;;;;2.90;0.30;;;12.30;99.90;;;;;;5031079;28;20230;-56
2022/02/17 06:32:49;;;;;;;0.20;0.20;;;12.30;99.90;;;;;;5031464;28;20176;-57
2022/02/17 06:35:20;;;;;;;0.20;0.20;;;12.30;99.90;;;;;;5031620;28;20191;-58
2022/02/17 06:37:47;;;;;;;0.50;0.20;;;12.30;99.90;;;;;;5033855;28;20188;-54
2022/02/17 06:40:14;;;;;;;0.57;0.40;;;12.20;99.90;;;;;;5034505;28;20696;-58
2022/02/17 06:42:40;;;;;;;0.97;0.13;;;12.30;99.90;;;;;;5035107;28;20237;-59
2022/02/17 06:45:06;;;;;;;1.03;0.40;;;12.40;99.90;;;;;;5034952;28;20173;-53
2022/02/17 06:47:31;;;;;;;0.10;0.10;;;12.30;99.90;;;;;;5034750;28;20255;-54
2022/02/17 06:49:57;;;;;;;0.30;0.30;;;12.40;99.90;;;;;;5034599;28;20213;-56
2022/02/17 06:52:23;;;;;;;1.83;0.20;;;12.40;99.90;;;;;;5034519;28;20183;-55
2022/02/17 06:54:48;;;;;;;0.10;0.10;;;12.40;99.90;;;;;;5034486;28;20171;-57
2022/02/17 06:57:21;;;;;;;0.43;0.23;;;12.40;99.90;;;;;;5034382;28;20197;-55
2022/02/17 06:59:47;;;;;;;0.20;0.20;;;12.40;99.90;;;;;;5034599;28;20211;-56
2022/02/17 07:02:13;;;;;;;0.40;0.30;;;12.40;99.90;;;;;;5030883;28;20207;-55
2022/02/17 07:04:39;;;;;;;1.33;0.20;;;12.40;99.90;;;;;;5033475;28;20203;-54
2022/02/17 07:07:05;;;;;;;0.10;0.10;;;12.40;99.90;;;;;;5033734;28;20172;-60
2022/02/17 07:09:31;;;;;;;1.03;0.47;;;12.40;99.90;;;;;;5033480;28;20227;-54
2022/02/17 07:11:56;;;;;;;0.83;0.40;;;12.30;99.90;;;;;;5029491;28;20187;-54
2022/02/17 07:14:23;;;;;;;0.73;0.10;;;12.30;99.90;;;;;;5033490;28;20262;-56
2022/02/17 07:16:53;;;;;;;0.27;0.27;;;12.30;99.90;;;;;;5034092;28;20526;-57
2022/02/17 07:19:20;;;;;;;0.10;0.10;;;12.30;99.90;;;;;;5033388;28;20230;-55
2022/02/17 07:21:46;;;;;;;0.10;0.10;;;12.40;99.90;;;;;;5033794;28;20164;-58
2022/02/17 07:24:12;;;;;;;1.43;0.20;;;12.40;99.90;;;;;;5032730;28;20171;-58
2022/02/17 07:26:37;;;;;;;6.50;0.50;;;12.40;99.90;;;;;;5033764;28;20190;-57
2022/02/17 07:29:03;;;;;;;0.40;0.13;;;12.40;99.90;;;;;;5033826;28;20600;-53
2022/02/17 07:31:29;;;;;;;0.20;0.10;;;12.40;99.90;;;;;;5033610;28;20260;-55
2022/02/17 07:33:54;;;;;;;0.20;0.20;;;12.40;99.90;;;;;;5033883;28;20208;-55
2022/02/17 07:36:20;;;;;;;0.10;0.10;;;12.40;99.90;;;;;;5033233;28;20209;-54
2022/02/17 07:38:45;;;;;;;0.10;0.10;;;12.40;99.90;;;;;;5033686;28;20226;-55
2022/02/17 07:41:12;;;;;;;0.53;0.30;;;12.30;99.90;;;;;;5032292;28;20200;-55
2022/02/17 07:43:38;;;;;;;0.20;0.20;;;12.30;99.90;;;;;;5033880;28;20262;-56
2022/02/17 07:46:04;;;;;;;0.20;0.20;;;12.20;99.90;;;;;;5033458;28;20180;-57
2022/02/17 07:48:30;;;;;;;0.97;0.20;;;12.10;99.90;;;;;;5031998;28;20680;-56
2022/02/17 07:50:56;;;;;;;0.30;0.20;;;11.90;99.90;;;;;;5015941;28;20210;-54
2022/02/17 07:53:23;;;;;;;0.70;0.20;;;11.80;99.90;;;;;;5028850;28;20645;-62
2022/02/17 07:55:48;;;;;;;0.20;0.20;;;11.80;99.90;;;;;;5035209;28;20565;-58
2022/02/17 07:58:17;;;;;;;0.33;0.20;;;11.70;99.90;;;;;;5035243;28;20188;-59
2022/02/17 08:00:43;;;;;;;0.40;0.30;;;11.60;99.90;;;;;;5036211;28;20203;-59
2022/02/17 08:03:10;;;;;;;0.53;0.30;;;11.50;99.90;;;;;;4999475;28;20180;-57
2022/02/17 08:05:38;;;;;;;2.37;0.43;;;11.40;99.90;;;;;;5032382;28;20261;-58
2022/02/17 08:08:05;;;;;;;0.90;0.50;;;11.20;99.90;;;;;;5033097;28;20198;-58
2022/02/17 08:10:31;;;;;;;1.90;0.60;;;11.20;99.90;;;;;;5035777;28;20171;-60
2022/02/17 08:12:56;;;;;;;0.70;0.40;;;11.10;99.90;;;;;;5035085;28;20191;-52
2022/02/17 08:15:22;;;;;;;1.73;0.70;;;11.00;99.90;;;;;;5033588;28;20254;-58
2022/02/17 08:17:48;;;;;;;0.57;0.57;;;11.00;99.90;;;;;;5031426;28;20188;-61
2022/02/17 08:20:13;;;;;;;2.93;0.80;;;10.90;99.90;;;;;;5031636;28;20562;-57
2022/02/17 08:22:56;;;;;;;1.77;1.00;;;10.80;99.90;;;;;;5031357;28;20168;-58
2022/02/17 08:25:23;;;;;;;1.50;0.90;;;10.80;99.90;;;;;;5031848;28;20180;-62
2022/02/17 08:27:49;;;;;;;2.47;0.60;;;11.40;99.90;;;;;;5032073;28;20210;-63
2022/02/17 08:30:16;;;;;;;2.40;0.83;;;13.50;99.90;;;;;;5034313;28;20199;-61
2022/02/17 08:32:42;;;;;;;3.93;1.00;;;14.40;99.90;;;;;;5015376;28;20183;-63
2022/02/17 08:35:10;;;;;;;3.30;0.80;;;13.60;99.90;;;;;;5029822;28;20229;-61
2022/02/17 08:37:36;;;;;;;2.60;0.93;;;13.10;99.90;;;;;;5024629;28;20269;-56
2022/02/17 08:40:06;;;;;;;1.23;0.67;;;12.70;99.90;;;;;;5032154;28;20212;-59
2022/02/17 08:42:32;;;;;;;3.70;1.03;;;;;;;;;;5029743;28;20213;-61
2022/02/17 08:44:58;;;;;;;5.20;1.00;;;12.10;99.90;;;;;;5032128;28;20210;-63
2022/02/17 08:47:24;;;;;;;3.07;1.07;;;;;;;;;;5037915;28;20183;-61
2022/02/17 08:49:50;;;;;;;2.40;1.23;;;;;;;;;;5047280;28;20265;-61
2022/02/17 08:52:16;;;;;;;4.07;1.10;;;;;;;;;;5031970;28;20195;-61
2022/02/17 08:54:42;;;;;;;2.67;1.17;;;;;;;;;;5031406;28;20184;-62
2022/02/17 08:57:08;;;;;;;3.40;1.27;;;;;;;;;;5031972;28;20168;-61
2022/02/17 08:59:34;;;;;;;2.80;1.10;;;;;;;;;;5031313;28;20564;-61
2022/02/17 09:02:00;;;;;;;3.43;0.93;;;11.70;99.90;;;;;;5031660;28;20176;-59
2022/02/17 09:04:27;;;;;;;3.60;1.20;;;11.50;99.90;;;;;;5031808;28;20700;-59
2022/02/17 09:06:53;;;;;;;4.97;1.80;;;11.50;99.90;;;;;;5028443;28;20188;-61
2022/02/17 09:09:19;;;;;;;4.20;1.40;;;11.30;99.90;;;;;;5030857;28;20227;-59
2022/02/17 09:11:45;;;;;;;3.23;1.33;;;10.90;99.90;;;;;;5031477;28;20645;-58
2022/02/17 09:14:11;;;;;;;3.30;1.50;;;;;;;;;;5031377;28;20626;-60
2022/02/17 09:16:37;;;;;;;3.90;1.27;;;;;;;;;;5031832;28;20183;-59
2022/02/17 09:19:04;;;;;;;5.40;1.60;;;11.40;99.90;;;;;;5031945;28;20573;-56
2022/02/17 09:21:30;;;;;;;4.33;1.50;;;;;;;;;;5032116;28;20210;-59
2022/02/17 09:23:56;;;;;;;4.17;1.77;;;11.50;99.90;;;;;;5031623;28;20511;-59
2022/02/17 09:26:22;;;;;;;5.00;1.60;;;;;;;;;;5031771;28;20194;-61
2022/02/17 09:28:48;;;;;;;6.07;1.57;;;;;;;;;;5031666;28;20242;-60
2022/02/17 09:31:19;;;;;;;6.87;1.80;;;11.30;99.90;;;;;;5031370;28;20183;-61
2022/02/17 09:33:50;;;;;;;4.53;1.50;;;11.20;99.90;;;;;;5032017;28;20215;-56
2022/02/17 09:36:16;;;;;;;3.63;1.60;;;11.40;99.90;;;;;;5013702;28;20198;-59
2022/02/17 09:38:42;;;;;;;3.67;1.40;;;11.60;99.90;;;;;;5031624;28;20183;-60
2022/02/17 09:41:09;;;;;;;4.93;2.07;;;11.40;99.90;;;;;;5013394;28;20192;-57
2022/02/17 09:43:36;;;;;;;5.13;1.70;;;11.10;99.90;;;;;;5031735;28;20183;-61
2022/02/17 09:46:03;;;;;;;4.07;2.00;;;11.20;99.90;;;;;;5031537;28;20640;-57
2022/02/17 09:48:28;;;;;;;5.67;1.90;;;10.90;99.90;;;;;;5031211;28;20203;-59
2022/02/17 09:50:54;;;;;;;3.90;1.80;;;11.50;99.90;;;;;;5031777;28;20167;-60
2022/02/17 09:53:20;;;;;;;3.83;1.70;;;11.40;99.90;;;;;;5031260;28;20178;-59
2022/02/17 09:55:46;;;;;;;7.03;2.00;;;11.60;99.90;;;;;;5031538;28;20175;-59
2022/02/17 09:58:14;;;;;;;6.33;2.37;;;11.50;99.90;;;;;;5029516;28;20187;-58
2022/02/17 10:00:39;;;;;;;5.70;2.00;;;12.60;99.90;;;;;;5030405;28;20292;-55
2022/02/17 10:03:26;;;;;;;7.67;1.87;;;13.90;99.90;;;;;;5031479;28;20218;-56
2022/02/17 10:06:16;;;;;;;4.37;1.93;;;14.60;99.90;;;;;;5031383;28;20179;-54
2022/02/17 10:08:43;;;;;;;5.30;1.40;;;14.90;99.90;;;;;;5031274;28;20239;-58
2022/02/17 10:11:26;;;;;;;4.80;1.90;;;14.40;99.90;;;;;;5033363;28;20603;-59
2022/02/17 10:14:09;;;;;;;5.57;1.83;;;14.00;99.90;;;;;;5035172;28;20672;-60
2022/02/17 10:16:54;;;;;;;5.50;1.90;;;13.70;99.90;;;;;;5061915;23;20175;-50
2022/02/17 10:19:27;;;;;;;4.40;1.60;;;13.10;99.90;;;;;;4992278;28;20212;-55
2022/02/17 10:22:01;;;;;;;6.87;2.17;;;12.60;99.90;;;;;;4974461;28;20256;-49
2022/02/17 10:24:31;;;;;;;5.50;1.80;;;12.50;99.90;;;;;;4994750;28;20184;-53
2022/02/17 10:27:05;;;;;;;26.87;11.13;;;12.40;99.90;;;;;;4994681;28;20198;-51
2022/02/17 10:29:34;;;;;;;7.00;2.53;;;12.30;99.90;;;;;;4995249;28;20169;-53
2022/02/17 10:32:12;;;;;;;12.03;3.77;;;11.90;99.90;;;;;;4995187;28;20178;-53
2022/02/17 10:34:40;;;;;;;7.07;2.20;;;11.80;99.90;;;;;;4995061;28;20204;-54
2022/02/17 10:37:06;;;;;;;7.10;1.97;;;12.10;99.90;;;;;;4995003;28;20189;-56
2022/02/17 10:39:42;;;;;;;5.73;2.20;;;11.40;99.90;;;;;;4995232;28;20235;-56
2022/02/17 10:42:09;;;;;;;3.93;1.53;;;11.50;99.90;;;;;;4995399;28;20157;-51
2022/02/17 10:44:44;;;;;;;5.77;2.07;;;12.00;99.90;;;;;;4995132;28;20165;-53
2022/02/17 10:47:19;;;;;;;5.97;1.97;;;11.60;99.90;;;;;;4995658;28;20741;-49
2022/02/17 10:49:47;;;;;;;10.90;5.67;;;11.60;99.90;;;;;;4994023;28;20156;-49
2022/02/17 10:52:25;;;;;;;4.40;1.87;;;11.20;99.90;;;;;;4994707;28;20531;-55
2022/02/17 10:55:20;;;;;;;5.47;1.83;;;11.60;99.90;;;;;;4995079;28;20647;-55
2022/02/17 10:57:47;;;;;;;5.20;1.80;;;11.70;99.90;;;;;;4994953;28;20185;-56
2022/02/17 11:00:13;;;;;;;4.63;2.00;;;11.60;99.90;;;;;;4993478;28;20275;-52
2022/02/17 11:02:39;;;;;;;4.10;2.07;;;12.20;99.90;;;;;;4994929;28;20508;-54
2022/02/17 11:05:07;;;;;;;6.47;2.40;;;12.20;99.90;;;;;;4993686;28;20181;-56
2022/02/17 11:07:35;;;;;;;7.10;2.07;;;11.90;99.90;;;;;;4995019;28;20239;-55
2022/02/17 11:10:01;;;;;;;7.00;2.13;;;11.90;99.90;;;;;;4994761;28;20181;-53
2022/02/17 11:12:27;;;;;;;4.17;1.87;;;11.90;99.90;;;;;;4994585;28;20219;-49
2022/02/17 11:14:57;;;;;;;5.20;1.63;;;11.90;99.90;;;;;;4976404;28;20188;-53
2022/02/17 11:17:24;;;;;;;7.30;1.87;;;11.90;99.90;;;;;;4992506;28;20223;-54
2022/02/17 11:19:51;;;;;;;5.13;1.47;;;12.00;99.90;;;;;;4994824;28;20536;-50
2022/02/17 11:22:17;;;;;;;4.87;1.57;;;12.10;99.90;;;;;;4994406;28;20540;-55
2022/02/17 11:24:48;;;;;;;7.00;1.90;;;12.00;99.90;;;;;;4994850;28;20177;-54
2022/02/17 11:27:14;;;;;;;4.87;1.67;;;11.90;99.90;;;;;;4993970;28;20648;-52
2022/02/17 11:29:41;;;;;;;5.47;2.00;;;12.00;99.90;;;;;;4985907;28;20223;-55
2022/02/17 11:32:12;;;;;;;6.67;1.77;;;12.10;99.90;;;;;;4993631;28;20184;-53
2022/02/17 11:34:58;;;;;;;4.40;1.77;;;12.10;99.90;;;;;;5007755;28;20231;-57
2022/02/17 11:37:25;;;;;;;4.97;1.70;;;12.20;99.90;;;;;;5014160;28;20194;-55
2022/02/17 11:39:57;;;;;;;3.60;1.63;;;12.20;99.90;;;;;;5013524;28;20204;-56
2022/02/17 11:42:27;;;;;;;4.80;1.67;;;12.40;99.90;;;;;;5013907;28;20178;-60
2022/02/17 11:45:15;;;;;;;3.43;1.77;;;12.60;99.90;;;;;;5013770;28;20193;-57
2022/02/17 11:48:01;;;;;;;4.20;1.73;;;12.50;99.90;;;;;;4999610;28;20202;-59
2022/02/17 11:50:41;;;;;;;4.83;1.73;;;12.20;99.90;;;;;;4994151;28;20170;-58
2022/02/17 11:53:30;;;;;;;4.97;1.83;;;12.00;99.90;;;;;;4993721;28;20177;-58
2022/02/17 11:56:16;;;;;;;5.17;1.80;;;11.90;99.90;;;;;;4991643;28;20655;-50
2022/02/17 11:58:48;;;;;;;3.67;1.70;;;11.80;99.90;;;;;;4952801;29;20198;-55
2022/02/17 12:01:25;;;;;;;6.77;2.23;;;11.80;99.90;;;;;;4952723;29;20289;-50
2022/02/17 12:04:17;;;;;;;5.17;1.77;;;11.70;99.90;;;;;;4952867;29;20214;-59
2022/02/17 12:06:45;;;;;;;6.50;2.00;;;11.00;99.90;;;;;;4952579;29;20581;-57
2022/02/17 12:12:26;;;;;;;5.10;2.00;;;11.30;99.90;;;;;;4952779;29;20178;-57
2022/02/17 12:14:53;;;;;;;4.27;1.80;;;11.50;99.90;;;;;;4952265;29;20186;-56
2022/02/17 12:17:32;;;;;;;5.53;2.00;;;12.00;99.90;;;;;;4951919;29;20222;-57
2022/02/17 12:20:07;;;;;;;6.30;2.23;;;13.50;99.90;;;;;;4952589;29;20298;-61
2022/02/17 12:22:33;;;;;;;5.57;2.40;;;14.70;99.90;;;;;;4953276;28;20194;-59
2022/02/17 12:25:13;;;;;;;5.60;2.30;;;17.10;99.90;;;;;;4971911;28;20170;-57
2022/02/17 12:27:40;;;;;;;5.40;1.87;;;14.80;99.90;;;;;;4971814;28;20212;-60
2022/02/17 12:30:06;;;;;;;7.03;2.20;;;14.20;99.90;;;;;;4971433;28;20193;-57
2022/02/17 12:32:34;;;;;;;5.40;2.20;;;13.60;99.90;;;;;;4971581;28;20194;-57
2022/02/17 12:34:59;;;;;;;6.10;2.10;;;13.40;99.90;;;;;;4964415;28;20255;-57
2022/02/17 12:37:26;;;;;;;7.73;2.30;;;13.20;99.90;;;;;;4993275;28;20209;-56
2022/02/17 12:39:51;;;;;;;5.07;2.00;;;13.80;99.90;;;;;;4993055;28;20197;-60
2022/02/17 12:42:18;;;;;;;7.03;2.00;;;13.90;99.90;;;;;;4993164;28;20257;-60
2022/02/17 12:44:46;;;;;;;6.33;2.60;;;13.60;99.90;;;;;;4992960;28;20185;-60
2022/02/17 12:47:13;;;;;;;8.33;2.50;;;13.30;99.90;;;;;;4993344;28;20210;-57
2022/02/17 12:49:39;;;;;;;5.90;2.13;;;13.10;99.90;;;;;;4993002;28;20183;-59
2022/02/17 12:52:17;;;;;;;8.33;2.10;;;12.90;99.90;;;;;;4993113;28;20188;-58
2022/02/17 12:54:54;;;;;;;5.13;2.07;;;12.80;99.90;;;;;;4992989;28;20199;-57
2022/02/17 12:57:20;;;;;;;10.40;2.60;;;12.60;99.90;;;;;;4992317;28;20198;-58